createdAt,value
2018-11-06T00:02:14.241Z,91.22
2018-11-06T00:04:54.788Z,91.31
2018-11-06T00:07:28.054Z,91.67
2018-11-06T00:10:00.647Z,91.40
2018-11-06T00:12:33.952Z,91.43
2018-11-06T00:15:08.775Z,91.25
2018-11-06T00:17:41.259Z,91.35
2018-11-06T00:20:14.695Z,91.46
2018-11-06T00:22:49.722Z,91.52
2018-11-06T00:25:23.851Z,91.76
2018-11-06T00:27:57.769Z,91.72
2018-11-06T00:30:31.176Z,91.77
2018-11-06T00:33:05.508Z,91.84
2018-11-06T00:35:38.322Z,91.51
2018-11-06T00:38:11.125Z,91.42
2018-11-06T00:40:43.687Z,91.72
2018-11-06T00:43:16.290Z,92.02
2018-11-06T00:45:49.888Z,92.06
2018-11-06T00:48:22.910Z,92.46
2018-11-06T00:50:56.416Z,92.59
2018-11-06T00:53:29.223Z,92.56
2018-11-06T00:56:02.761Z,92.45
2018-11-06T00:58:35.237Z,92.57
2018-11-06T01:01:08.187Z,92.62
2018-11-06T01:03:46.159Z,92.67
2018-11-06T01:06:19.509Z,92.62
2018-11-06T01:08:52.479Z,92.67
2018-11-06T01:11:25.098Z,92.62
2018-11-06T01:13:57.864Z,92.54
2018-11-06T01:16:33.114Z,93.07
2018-11-06T01:19:06.970Z,93.15
2018-11-06T01:21:39.934Z,93.03
2018-11-06T01:24:13.089Z,92.80
2018-11-06T01:26:45.922Z,92.64
2018-11-06T01:29:18.453Z,92.59
2018-11-06T01:31:51.397Z,92.74
2018-11-06T01:34:25.058Z,92.73
2018-11-06T01:36:58.676Z,92.63
2018-11-06T01:39:33.100Z,92.74
2018-11-06T01:42:05.814Z,92.97
2018-11-06T01:44:38.357Z,93.04
2018-11-06T01:47:11.387Z,93.16
2018-11-06T01:49:44.021Z,93.42
2018-11-06T01:52:16.598Z,93.64
2018-11-06T01:54:49.594Z,93.50
2018-11-06T01:57:22.849Z,93.73
2018-11-06T01:59:55.509Z,93.69
2018-11-06T02:02:28.581Z,93.64
2018-11-06T02:05:01.558Z,93.63
2018-11-06T02:07:34.212Z,93.76
2018-11-06T02:10:09.481Z,93.86
2018-11-06T02:12:43.062Z,93.82
2018-11-06T02:15:17.295Z,93.76
2018-11-06T02:17:53.510Z,93.89
2018-11-06T02:20:27.680Z,93.84
2018-11-06T02:23:01.903Z,93.93
2018-11-06T02:25:34.890Z,94.06
2018-11-06T02:28:07.743Z,94.21
2018-11-06T02:30:41.609Z,94.30
2018-11-06T02:33:14.462Z,94.18
2018-11-06T02:36:09.734Z,94.17
2018-11-06T02:38:43.178Z,94.08
2018-11-06T02:41:20.955Z,94.13
2018-11-06T02:43:53.522Z,94.18
2018-11-06T02:46:26.100Z,94.09
2018-11-06T02:48:59.000Z,94.10
2018-11-06T02:51:31.683Z,94.15
2018-11-06T02:54:04.434Z,94.09
2018-11-06T02:56:45.229Z,94.09
2018-11-06T02:59:17.721Z,94.39
2018-11-06T03:01:50.378Z,94.54
2018-11-06T03:04:23.318Z,94.51
2018-11-06T03:06:56.334Z,94.57
2018-11-06T03:09:28.866Z,94.73
2018-11-06T03:12:02.405Z,94.95
2018-11-06T03:14:35.194Z,94.94
2018-11-06T03:17:07.894Z,94.86
2018-11-06T03:19:40.879Z,94.71
2018-11-06T03:22:13.435Z,94.49
2018-11-06T03:24:46.021Z,94.23
2018-11-06T03:27:19.016Z,94.08
2018-11-06T03:29:51.502Z,93.85
2018-11-06T03:32:24.076Z,93.58
2018-11-06T03:34:57.132Z,93.57
2018-11-06T03:37:30.622Z,93.25
2018-11-06T03:40:06.073Z,93.05
2018-11-06T03:42:39.841Z,92.90
2018-11-06T03:45:14.310Z,92.86
2018-11-06T03:47:47.518Z,92.29
2018-11-06T03:50:20.492Z,91.36
2018-11-06T03:52:53.742Z,90.68
2018-11-06T03:55:26.202Z,90.34
2018-11-06T03:57:59.037Z,90.06
2018-11-06T04:00:31.524Z,89.71
2018-11-06T04:03:04.092Z,88.84
2018-11-06T04:05:36.948Z,88.48
2018-11-06T04:08:09.562Z,87.95
2018-11-06T04:10:42.757Z,87.33
2018-11-06T04:13:20.724Z,86.49
2018-11-06T04:15:53.905Z,85.98
2018-11-06T04:18:27.000Z,86.02
2018-11-06T04:20:59.777Z,85.94
2018-11-06T04:23:40.546Z,85.98
2018-11-06T04:26:13.590Z,86.05
2018-11-06T04:28:47.426Z,85.85
2018-11-06T04:31:20.154Z,85.08
2018-11-06T04:33:52.758Z,84.73
2018-11-06T04:36:25.702Z,84.66
2018-11-06T04:38:58.763Z,84.99
2018-11-06T04:41:31.490Z,85.28
2018-11-06T04:44:05.235Z,85.41
2018-11-06T04:46:37.863Z,84.74
2018-11-06T04:49:10.461Z,84.06
2018-11-06T04:51:45.037Z,83.64
2018-11-06T04:54:17.911Z,83.76
2018-11-06T04:56:52.013Z,83.52
2018-11-06T04:59:24.947Z,83.43
2018-11-06T05:01:57.700Z,83.51
2018-11-06T05:04:29.414Z,83.32
2018-11-06T05:07:03.774Z,83.25
2018-11-06T05:09:37.638Z,83.14
2018-11-06T05:12:10.670Z,82.79
2018-11-06T05:14:43.644Z,82.81
2018-11-06T05:17:17.487Z,82.87
2018-11-06T05:19:50.128Z,82.85
2018-11-06T05:22:24.378Z,82.86
2018-11-06T05:24:58.036Z,82.88
2018-11-06T05:27:30.885Z,83.19
2018-11-06T05:30:06.794Z,83.28
2018-11-06T05:32:40.630Z,83.06
2018-11-06T05:35:13.537Z,83.15
2018-11-06T05:37:46.022Z,83.36
2018-11-06T05:40:41.094Z,83.55
2018-11-06T05:43:15.145Z,83.21
2018-11-06T05:45:49.724Z,83.12
2018-11-06T05:48:23.457Z,83.16
2018-11-06T05:50:56.395Z,83.18
2018-11-06T05:53:31.224Z,82.92
2018-11-06T05:56:04.205Z,82.70
2018-11-06T05:58:37.555Z,82.36
2018-11-06T06:01:10.090Z,82.14
2018-11-06T06:03:44.340Z,81.93
2018-11-06T06:06:16.923Z,81.76
2018-11-06T06:08:50.675Z,81.59
2018-11-06T06:11:23.765Z,80.80
2018-11-06T06:13:56.289Z,79.89
2018-11-06T06:16:28.919Z,79.66
2018-11-06T06:19:02.993Z,79.80
2018-11-06T06:21:37.314Z,79.90
2018-11-06T06:24:09.826Z,79.91
2018-11-06T06:26:42.916Z,79.71
2018-11-06T06:29:15.461Z,79.53
2018-11-06T06:31:50.458Z,79.53
2018-11-06T06:34:23.062Z,79.34
2018-11-06T06:36:58.748Z,79.66
2018-11-06T06:39:31.295Z,79.99
2018-11-06T06:42:04.962Z,80.10
2018-11-06T06:44:37.698Z,80.27
2018-11-06T06:47:10.190Z,80.94
2018-11-06T06:49:43.486Z,81.13
2018-11-06T06:52:16.968Z,80.99
2018-11-06T06:54:50.051Z,81.03
2018-11-06T06:57:23.977Z,81.35
2018-11-06T06:59:58.886Z,81.54
2018-11-06T07:02:34.671Z,81.66
2018-11-06T07:05:12.584Z,81.82
2018-11-06T07:07:45.289Z,82.16
2018-11-06T07:10:20.849Z,82.54
2018-11-06T07:12:55.472Z,82.80
2018-11-06T07:15:30.010Z,82.80
2018-11-06T07:18:02.709Z,83.46
2018-11-06T07:20:35.278Z,84.99
2018-11-06T07:23:09.862Z,85.47
2018-11-06T07:25:42.926Z,84.97
2018-11-06T07:28:18.176Z,85.18
2018-11-06T07:30:50.859Z,85.06
2018-11-06T07:33:24.870Z,84.43
2018-11-06T07:35:59.039Z,83.90
2018-11-06T07:38:32.804Z,83.41
2018-11-06T07:41:05.876Z,83.37
2018-11-06T07:43:40.335Z,83.49
2018-11-06T07:46:29.792Z,83.71
2018-11-06T07:49:02.338Z,83.87
2018-11-06T07:51:37.887Z,83.98
2018-11-06T07:54:10.582Z,83.96
2018-11-06T07:56:46.671Z,83.95
2018-11-06T07:59:21.133Z,83.91
2018-11-06T08:01:53.786Z,83.88
2018-11-06T08:04:26.850Z,83.78
2018-11-06T08:07:20.211Z,83.72
2018-11-06T08:09:54.026Z,83.40
2018-11-06T08:12:27.586Z,83.18
2018-11-06T08:15:00.320Z,83.20
2018-11-06T08:17:35.226Z,83.13
2018-11-06T08:20:12.900Z,82.91
2018-11-06T08:22:48.332Z,82.89
2018-11-06T08:25:21.512Z,82.77
2018-11-06T08:27:56.359Z,82.54
2018-11-06T08:30:29.928Z,82.39
2018-11-06T08:33:09.833Z,82.27
2018-11-06T08:35:43.338Z,82.20
2018-11-06T08:38:16.538Z,82.18
2018-11-06T08:40:52.110Z,82.01
2018-11-06T08:43:27.266Z,82.09
2018-11-06T08:46:00.528Z,82.11
2018-11-06T08:48:37.299Z,81.75
2018-11-06T08:51:13.294Z,81.29
2018-11-06T08:53:51.714Z,81.06
2018-11-06T08:56:26.842Z,80.91
2018-11-06T08:59:01.502Z,80.48
2018-11-06T09:01:37.249Z,80.08
2018-11-06T09:04:10.788Z,79.32
2018-11-06T09:06:44.592Z,79.54
2018-11-06T09:09:17.853Z,79.36
2018-11-06T09:11:50.462Z,79.26
2018-11-06T09:14:24.467Z,79.17
2018-11-06T09:16:57.474Z,78.96
2018-11-06T09:19:31.074Z,78.57
2018-11-06T09:22:04.234Z,76.98
2018-11-06T09:24:38.208Z,75.69
2018-11-06T09:27:12.125Z,74.91
2018-11-06T09:29:46.435Z,74.76
2018-11-06T09:32:20.824Z,73.03
2018-11-06T09:34:54.664Z,72.48
2018-11-06T09:37:27.527Z,72.23
2018-11-06T09:40:04.530Z,72.14
2018-11-06T09:42:39.062Z,72.58
2018-11-06T09:45:17.600Z,72.89
2018-11-06T09:47:52.074Z,70.13
2018-11-06T09:50:28.678Z,67.61
2018-11-06T09:53:01.725Z,66.83
2018-11-06T09:55:36.767Z,65.32
2018-11-06T09:58:09.990Z,64.60
2018-11-06T10:00:45.482Z,63.15
2018-11-06T10:03:18.667Z,63.43
2018-11-06T10:05:56.334Z,62.48
2018-11-06T10:08:32.869Z,60.84
2018-11-06T10:11:08.270Z,60.56
2018-11-06T10:13:41.990Z,60.34
2018-11-06T10:16:16.364Z,59.75
2018-11-06T10:18:56.625Z,59.11
2018-11-06T10:21:32.273Z,59.26
2018-11-06T10:24:06.584Z,58.25
2018-11-06T10:26:43.366Z,57.99
2018-11-06T10:29:16.842Z,57.91
2018-11-06T10:31:50.969Z,57.58
2018-11-06T10:34:23.682Z,55.39
2018-11-06T10:36:56.429Z,54.35
2018-11-06T10:39:38.710Z,53.66
2018-11-06T10:42:12.643Z,52.92
2018-11-06T10:44:45.989Z,52.67
2018-11-06T10:47:25.053Z,52.92
2018-11-06T10:50:01.813Z,53.35
2018-11-06T10:52:35.945Z,53.19
2018-11-06T10:55:12.492Z,52.84
2018-11-06T10:57:55.034Z,52.85
2018-11-06T11:00:33.735Z,52.50
2018-11-06T11:03:11.997Z,52.91
2018-11-06T11:05:45.066Z,52.72
2018-11-06T11:08:19.112Z,53.08
2018-11-06T11:10:52.693Z,53.23
2018-11-06T11:13:27.858Z,52.41
2018-11-06T11:16:03.589Z,51.04
2018-11-06T11:18:38.604Z,50.99
2018-11-06T11:21:16.017Z,49.46
2018-11-06T11:23:54.110Z,47.24
2018-11-06T11:26:28.999Z,45.33
2018-11-06T11:29:02.714Z,44.02
2018-11-06T11:31:37.478Z,45.08
2018-11-06T11:34:11.442Z,44.54
2018-11-06T11:36:52.911Z,44.67
2018-11-06T11:39:32.609Z,44.30
2018-11-06T11:42:07.453Z,43.94
2018-11-06T11:44:46.527Z,44.01
2018-11-06T11:47:23.870Z,43.52
2018-11-06T11:49:58.761Z,43.27
2018-11-06T11:52:33.586Z,42.25
2018-11-06T11:55:07.250Z,41.37
2018-11-06T11:57:41.233Z,40.95
2018-11-06T12:00:18.837Z,40.78
2018-11-06T12:02:53.478Z,40.43
2018-11-06T12:05:30.647Z,40.77
2018-11-06T12:08:04.367Z,41.08
2018-11-06T12:10:38.571Z,41.41
2018-11-06T12:13:12.796Z,41.30
2018-11-06T12:15:51.162Z,41.80
2018-11-06T12:18:25.167Z,41.36
2018-11-06T12:21:00.323Z,41.79
2018-11-06T12:23:37.641Z,41.62
2018-11-06T12:26:14.278Z,41.68
2018-11-06T12:28:51.906Z,41.65
2018-11-06T12:31:29.739Z,40.57
2018-11-06T12:34:03.359Z,40.59
2018-11-06T12:36:42.670Z,40.64
2018-11-06T12:39:16.657Z,39.92
2018-11-06T12:41:49.989Z,39.68
2018-11-06T12:44:22.707Z,39.13
2018-11-06T12:46:56.809Z,38.89
2018-11-06T12:49:31.610Z,38.25
2018-11-06T12:52:13.756Z,38.49
2018-11-06T12:54:52.655Z,38.45
2018-11-06T12:57:28.744Z,38.40
2018-11-06T13:00:05.335Z,38.75
2018-11-06T13:02:39.348Z,38.26
2018-11-06T13:05:17.336Z,37.96
2018-11-06T13:07:52.007Z,37.92
2018-11-06T13:10:29.498Z,37.67
2018-11-06T13:13:08.534Z,37.92
2018-11-06T13:15:45.800Z,37.96
2018-11-06T13:18:20.767Z,37.34
2018-11-06T13:20:55.057Z,37.31
2018-11-06T13:23:31.777Z,36.48
2018-11-06T13:26:06.138Z,36.97
2018-11-06T13:28:41.851Z,36.08
2018-11-06T13:31:15.886Z,36.13
2018-11-06T13:33:55.543Z,35.28
2018-11-06T13:36:29.577Z,35.08
2018-11-06T13:39:09.554Z,34.59
2018-11-06T13:41:45.725Z,34.55
2018-11-06T13:44:24.507Z,34.99
2018-11-06T13:47:02.715Z,34.96
2018-11-06T13:49:39.018Z,34.12
2018-11-06T13:52:13.238Z,34.16
2018-11-06T13:54:48.151Z,34.13
2018-11-06T13:57:22.030Z,34.80
2018-11-06T13:59:59.086Z,34.99
2018-11-06T14:02:34.610Z,35.23
2018-11-06T14:05:09.809Z,35.68
2018-11-06T14:07:43.208Z,35.94
2018-11-06T14:10:17.700Z,36.32
2018-11-06T14:12:51.323Z,36.62
2018-11-06T14:15:27.459Z,36.82
2018-11-06T14:18:03.239Z,37.01
2018-11-06T14:20:56.513Z,37.12
2018-11-06T14:23:35.825Z,37.79
2018-11-06T14:26:10.984Z,37.88
2018-11-06T14:28:46.899Z,38.09
2018-11-06T14:31:21.919Z,38.16
2018-11-06T14:33:59.643Z,38.47
2018-11-06T14:36:34.647Z,38.72
2018-11-06T14:39:20.681Z,38.87
2018-11-06T14:41:54.671Z,39.27
2018-11-06T14:44:28.613Z,39.56
2018-11-06T14:47:03.210Z,39.49
2018-11-06T14:49:41.695Z,39.88
2018-11-06T14:52:28.079Z,39.97
2018-11-06T14:55:03.066Z,40.23
2018-11-06T14:57:36.056Z,40.57
2018-11-06T15:00:19.282Z,41.02
2018-11-06T15:02:56.768Z,41.51
2018-11-06T15:05:37.701Z,42.18
2018-11-06T15:08:12.924Z,42.61
2018-11-06T15:10:47.422Z,42.84
2018-11-06T15:13:27.088Z,43.35
2018-11-06T15:16:05.531Z,43.80
2018-11-06T15:18:43.728Z,44.25
2018-11-06T15:23:59.720Z,45.13
2018-11-06T15:26:40.929Z,45.65
2018-11-06T15:29:16.427Z,45.81
2018-11-06T15:31:52.386Z,46.36
2018-11-06T15:34:26.642Z,46.61
2018-11-06T15:36:59.569Z,46.89
2018-11-06T15:39:38.765Z,47.00
2018-11-06T15:42:17.056Z,47.45
2018-11-06T15:44:52.882Z,47.47
2018-11-06T15:47:27.474Z,47.74
2018-11-06T15:50:02.440Z,48.57
2018-11-06T15:52:38.727Z,49.94
2018-11-06T15:55:13.732Z,51.22
2018-11-06T15:57:54.770Z,51.84
2018-11-06T16:00:33.308Z,52.51
2018-11-06T16:03:07.666Z,53.17
2018-11-06T16:05:43.047Z,53.95
2018-11-06T16:08:21.499Z,54.25
2018-11-06T16:10:57.510Z,54.66
2018-11-06T16:13:34.396Z,55.43
2018-11-06T16:16:10.209Z,55.58
2018-11-06T16:18:45.506Z,56.22
2018-11-06T16:21:24.616Z,56.20
2018-11-06T16:24:00.052Z,56.39
2018-11-06T16:26:39.503Z,56.49
2018-11-06T16:29:19.412Z,56.85
2018-11-06T16:31:54.390Z,57.01
2018-11-06T16:34:30.373Z,57.08
2018-11-06T16:37:06.829Z,57.72
2018-11-06T16:39:51.207Z,58.11
2018-11-06T16:42:30.558Z,58.78
2018-11-06T16:45:18.333Z,58.62
2018-11-06T16:47:54.318Z,58.52
2018-11-06T16:50:33.931Z,58.16
2018-11-06T16:53:10.800Z,57.47
2018-11-06T16:55:48.810Z,56.71
2018-11-06T16:58:22.152Z,55.98
2018-11-06T17:01:01.845Z,55.14
2018-11-06T17:03:39.521Z,54.59
2018-11-06T17:06:21.714Z,54.24
2018-11-06T17:08:55.415Z,54.06
2018-11-06T17:11:30.602Z,54.06
2018-11-06T17:14:09.278Z,54.30
2018-11-06T17:16:46.366Z,54.60
2018-11-06T17:19:20.988Z,54.91
2018-11-06T17:21:56.518Z,55.41
2018-11-06T17:24:34.812Z,55.78
2018-11-06T17:27:10.279Z,56.11
2018-11-06T17:29:45.677Z,56.53
2018-11-06T17:32:20.939Z,57.17
2018-11-06T17:35:00.238Z,57.57
2018-11-06T17:37:37.884Z,58.08
2018-11-06T17:40:17.795Z,58.62
2018-11-06T17:42:56.355Z,58.95
2018-11-06T17:45:39.617Z,59.27
2018-11-06T17:48:19.506Z,59.58
2018-11-06T17:51:00.771Z,59.91
2018-11-06T17:53:37.253Z,60.03
2018-11-06T17:56:14.630Z,60.37
2018-11-06T17:58:49.413Z,60.33
2018-11-06T18:01:25.093Z,60.51
2018-11-06T18:04:02.646Z,60.56
2018-11-06T18:06:52.456Z,60.81
2018-11-06T18:09:33.050Z,60.63
2018-11-06T18:12:08.190Z,60.67
2018-11-06T18:14:57.431Z,60.92
2018-11-06T18:17:34.287Z,60.73
2018-11-06T18:20:13.929Z,60.60
2018-11-06T18:22:48.322Z,60.33
2018-11-06T18:25:32.693Z,60.18
2018-11-06T18:28:11.950Z,60.26
2018-11-06T18:30:47.497Z,60.46
2018-11-06T18:33:23.636Z,60.84
2018-11-06T18:36:07.218Z,60.97
2018-11-06T18:38:49.434Z,61.34
2018-11-06T18:41:27.102Z,61.03
2018-11-06T18:44:08.267Z,61.08
2018-11-06T18:46:42.547Z,61.55
2018-11-06T18:49:19.366Z,61.93
2018-11-06T18:51:54.423Z,62.67
2018-11-06T18:54:37.367Z,62.88
2018-11-06T18:57:16.283Z,63.20
2018-11-06T19:00:04.231Z,63.35
2018-11-06T19:02:48.506Z,63.72
2018-11-06T19:05:28.839Z,64.12
2018-11-06T19:08:10.699Z,64.71
2018-11-06T19:10:48.349Z,65.02
2018-11-06T19:13:23.898Z,65.33
2018-11-06T19:16:01.067Z,65.73
2018-11-06T19:18:37.849Z,66.13
2018-11-06T19:21:19.405Z,66.30
2018-11-06T19:24:00.824Z,66.84
2018-11-06T19:26:36.684Z,67.19
2018-11-06T19:29:23.609Z,67.68
2018-11-06T19:31:59.356Z,68.16
2018-11-06T19:34:42.625Z,68.49
2018-11-06T19:37:27.294Z,69.17
2018-11-06T19:40:01.631Z,69.01
2018-11-06T19:42:37.595Z,69.17
2018-11-06T19:45:18.898Z,69.36
2018-11-06T19:47:54.419Z,69.38
2018-11-06T19:50:47.342Z,69.67
2018-11-06T19:53:25.833Z,69.84
2018-11-06T19:56:01.943Z,70.05
2018-11-06T19:58:48.185Z,70.35
2018-11-06T20:01:31.783Z,70.54
2018-11-06T20:04:12.521Z,71.23
2018-11-06T20:06:47.665Z,71.17
2018-11-06T20:09:27.114Z,71.33
2018-11-06T20:12:08.610Z,71.62
2018-11-06T20:14:44.916Z,71.42
2018-11-06T20:17:24.583Z,71.45
2018-11-06T20:20:00.547Z,71.54
2018-11-06T20:22:41.253Z,71.69
2018-11-06T20:25:29.751Z,71.76
2018-11-06T20:28:06.732Z,71.87
2018-11-06T20:30:44.101Z,71.82
2018-11-06T20:33:20.703Z,71.71
2018-11-06T20:36:25.081Z,71.84
2018-11-06T20:39:11.518Z,71.83
2018-11-06T20:41:51.412Z,72.05
2018-11-06T20:44:30.342Z,72.27
2018-11-06T20:47:05.292Z,72.33
2018-11-06T20:52:40.193Z,72.54
2018-11-06T20:55:17.670Z,72.58
2018-11-06T20:57:57.214Z,72.79
2018-11-06T21:00:34.969Z,73.22
2018-11-06T21:03:21.837Z,73.39
2018-11-06T21:05:56.431Z,73.34
2018-11-06T21:08:31.659Z,73.51
2018-11-06T21:11:07.296Z,73.58
2018-11-06T21:13:47.804Z,73.75
2018-11-06T21:16:22.587Z,73.74
2018-11-06T21:19:01.447Z,73.70
2018-11-06T21:21:38.324Z,73.75
2018-11-06T21:24:13.747Z,73.71
2018-11-06T21:26:51.374Z,73.58
2018-11-06T21:29:29.659Z,73.51
2018-11-06T21:32:09.123Z,73.68
2018-11-06T21:34:48.368Z,73.65
2018-11-06T21:37:29.443Z,73.66
2018-11-06T21:40:07.994Z,73.79
2018-11-06T21:42:42.839Z,73.87
2018-11-06T21:45:18.158Z,74.01
2018-11-06T21:47:59.215Z,74.21
2018-11-06T21:50:33.171Z,74.64
2018-11-06T21:53:10.238Z,74.89
2018-11-06T21:55:46.214Z,75.01
2018-11-06T21:58:24.453Z,74.88
2018-11-06T22:01:09.470Z,74.90
2018-11-06T22:03:45.533Z,74.88
2018-11-06T22:06:21.078Z,74.95
2018-11-06T22:08:56.450Z,75.27
2018-11-06T22:11:33.030Z,75.41
2018-11-06T22:14:09.538Z,75.35
2018-11-06T22:16:45.071Z,75.25
2018-11-06T22:19:23.183Z,75.37
2018-11-06T22:22:00.514Z,75.50
2018-11-06T22:24:35.681Z,75.48
2018-11-06T22:27:11.634Z,75.33
2018-11-06T22:29:48.045Z,75.25
2018-11-06T22:32:22.549Z,75.36
2018-11-06T22:34:59.817Z,75.61
2018-11-06T22:37:34.422Z,75.61
2018-11-06T22:40:10.474Z,75.94
2018-11-06T22:42:48.917Z,76.23
2018-11-06T22:45:29.177Z,76.53
2018-11-06T22:48:04.774Z,76.92
2018-11-06T22:50:39.079Z,76.76
2018-11-06T22:53:14.137Z,76.77
2018-11-06T22:55:48.310Z,76.88
2018-11-06T22:58:23.971Z,76.89
2018-11-06T23:01:04.361Z,77.01
2018-11-06T23:03:41.392Z,77.12
2018-11-06T23:06:16.094Z,77.04
2018-11-06T23:08:53.299Z,76.93
2018-11-06T23:11:29.490Z,77.01
2018-11-06T23:14:02.783Z,77.03
2018-11-06T23:16:36.474Z,76.74
2018-11-06T23:19:09.285Z,76.50
2018-11-06T23:21:43.211Z,76.25
2018-11-06T23:24:21.498Z,76.10
2018-11-06T23:26:58.322Z,76.13
2018-11-06T23:29:32.095Z,76.08
2018-11-06T23:32:05.022Z,75.95
2018-11-06T23:34:40.276Z,75.87
2018-11-06T23:37:14.601Z,75.98
2018-11-06T23:39:48.658Z,76.06
2018-11-06T23:42:24.166Z,76.05
2018-11-06T23:44:57.737Z,76.00
2018-11-06T23:47:30.566Z,76.00
2018-11-06T23:50:03.809Z,76.05
2018-11-06T23:52:38.469Z,76.13
2018-11-06T23:55:12.621Z,76.17
2018-11-06T23:57:46.782Z,76.10
